createdAt,value
2019-04-21T00:02:24.116Z,60.90
2019-04-21T00:05:00.847Z,60.94
2019-04-21T00:07:36.196Z,60.87
2019-04-21T00:10:14.994Z,61.01
2019-04-21T00:12:40.516Z,60.88
2019-04-21T00:15:01.993Z,62.12
2019-04-21T00:17:27.069Z,62.33
2019-04-21T00:20:09.161Z,62.57
2019-04-21T00:22:41.312Z,62.65
2019-04-21T00:25:15.367Z,63.11
2019-04-21T00:27:47.830Z,62.88
2019-04-21T00:30:30.341Z,62.69
2019-04-21T00:32:50.240Z,63.54
2019-04-21T00:35:13.362Z,62.83
2019-04-21T00:38:00.538Z,63.42
2019-04-21T00:40:35.532Z,63.91
2019-04-21T00:43:01.262Z,64.45
2019-04-21T00:45:29.084Z,63.96
2019-04-21T00:48:08.272Z,63.91
2019-04-21T00:50:40.749Z,64.45
2019-04-21T00:53:14.850Z,64.74
2019-04-21T00:55:50.688Z,64.25
2019-04-21T00:58:28.415Z,64.27
2019-04-21T01:00:51.094Z,64.51
2019-04-21T01:03:26.667Z,64.84
2019-04-21T01:08:25.123Z,65.13
2019-04-21T01:10:49.950Z,65.02
2019-04-21T01:13:36.282Z,65.37
2019-04-21T01:16:22.299Z,64.79
2019-04-21T01:18:32.637Z,66.35
2019-04-21T01:20:43.177Z,65.20
2019-04-21T01:23:12.881Z,66.29
2019-04-21T01:25:57.169Z,66.14
2019-04-21T01:28:29.268Z,65.77
2019-04-21T01:31:07.517Z,66.16
2019-04-21T01:33:42.829Z,66.91
2019-04-21T01:36:03.899Z,66.24
2019-04-21T01:38:40.245Z,66.53
2019-04-21T01:41:16.314Z,67.19
2019-04-21T01:43:39.519Z,67.00
2019-04-21T01:46:10.732Z,67.24
2019-04-21T01:48:41.650Z,67.12
2019-04-21T01:51:15.058Z,67.93
2019-04-21T01:53:56.455Z,68.08
2019-04-21T01:56:31.798Z,67.87
2019-04-21T01:58:53.262Z,68.55
2019-04-21T02:01:36.042Z,70.04
2019-04-21T02:04:01.142Z,69.51
2019-04-21T02:06:36.209Z,69.38
2019-04-21T02:09:08.262Z,70.09
2019-04-21T02:11:43.333Z,69.52
2019-04-21T02:14:10.207Z,69.23
2019-04-21T02:16:40.515Z,69.40
2019-04-21T02:19:08.450Z,69.64
2019-04-21T02:21:38.279Z,68.34
2019-04-21T02:24:25.458Z,68.91
2019-04-21T02:26:45.754Z,69.31
2019-04-21T02:29:20.564Z,69.64
2019-04-21T02:32:01.921Z,69.70
2019-04-21T02:34:32.224Z,69.93
2019-04-21T02:37:17.630Z,70.49
2019-04-21T02:42:20.078Z,69.34
2019-04-21T02:44:42.901Z,70.31
2019-04-21T02:47:14.186Z,70.45
2019-04-21T02:52:30.023Z,69.86
2019-04-21T02:57:15.826Z,72.03
2019-04-21T02:59:50.050Z,71.95
2019-04-21T03:05:13.566Z,71.38
2019-04-21T03:07:44.671Z,71.15
2019-04-21T03:10:12.213Z,71.10
2019-04-21T03:12:42.069Z,70.18
2019-04-21T03:15:22.050Z,69.99
2019-04-21T03:17:55.353Z,70.40
2019-04-21T03:20:18.978Z,70.32
2019-04-21T03:23:15.346Z,70.50
2019-04-21T03:28:00.781Z,70.84
2019-04-21T03:33:35.537Z,70.28
2019-04-21T03:37:52.992Z,69.63
2019-04-21T03:40:26.056Z,69.52
2019-04-21T03:42:57.801Z,71.27
2019-04-21T03:45:39.226Z,69.68
2019-04-21T03:48:05.293Z,70.26
2019-04-21T03:53:02.946Z,70.95
2019-04-21T04:00:58.590Z,70.10
2019-04-21T04:03:42.148Z,70.31
2019-04-21T04:11:03.047Z,71.32
2019-04-21T04:13:39.703Z,70.69
2019-04-21T04:16:05.753Z,70.38
2019-04-21T04:18:41.157Z,70.84
2019-04-21T04:21:12.241Z,71.90
2019-04-21T04:23:41.824Z,71.89
2019-04-21T04:26:07.407Z,72.10
2019-04-21T04:31:19.625Z,72.70
2019-04-21T04:38:52.150Z,70.69
2019-04-21T04:41:24.504Z,70.60
2019-04-21T04:43:54.591Z,70.42
2019-04-21T04:46:17.897Z,71.09
2019-04-21T04:48:57.299Z,71.07
2019-04-21T04:51:36.722Z,70.56
2019-04-21T04:53:51.162Z,71.31
2019-04-21T04:56:31.103Z,70.35
2019-04-21T04:59:24.542Z,70.78
2019-04-21T05:01:51.446Z,69.95
2019-04-21T05:06:42.469Z,68.76
2019-04-21T05:09:10.946Z,67.84
2019-04-21T05:16:46.937Z,66.42
2019-04-21T05:19:16.111Z,65.87
2019-04-21T05:24:01.351Z,64.54
2019-04-21T05:26:36.066Z,63.89
2019-04-21T05:28:58.828Z,64.25
2019-04-21T05:31:57.045Z,63.72
2019-04-21T05:34:22.102Z,62.61
2019-04-21T05:36:56.796Z,61.74
2019-04-21T05:39:42.097Z,61.20
2019-04-21T05:42:10.234Z,60.60
2019-04-21T05:45:00.191Z,59.41
2019-04-21T05:49:55.955Z,57.75
2019-04-21T05:52:22.825Z,57.78
2019-04-21T05:55:05.912Z,57.10
2019-04-21T05:57:33.560Z,56.29
2019-04-21T06:00:07.096Z,55.06
2019-04-21T06:02:38.485Z,54.39
2019-04-21T06:05:20.319Z,54.01
2019-04-21T06:07:41.038Z,53.86
2019-04-21T06:10:18.758Z,53.92
2019-04-21T06:12:46.661Z,54.77
2019-04-21T06:15:14.009Z,53.78
2019-04-21T06:17:54.937Z,53.47
2019-04-21T06:20:15.388Z,55.95
2019-04-21T06:22:52.014Z,52.40
2019-04-21T06:27:50.786Z,51.58
2019-04-21T06:30:19.476Z,52.16
2019-04-21T06:32:52.175Z,51.44
2019-04-21T06:35:39.743Z,49.80
2019-04-21T06:38:10.387Z,49.93
2019-04-21T06:40:35.820Z,48.60
2019-04-21T06:43:17.998Z,47.14
2019-04-21T06:45:45.936Z,47.45
2019-04-21T06:48:15.312Z,46.04
2019-04-21T06:50:46.647Z,46.93
2019-04-21T06:53:12.006Z,46.08
2019-04-21T06:55:41.891Z,45.76
2019-04-21T06:58:15.876Z,45.13
2019-04-21T07:00:41.343Z,45.07
2019-04-21T07:05:50.107Z,44.30
2019-04-21T07:08:34.635Z,44.93
2019-04-21T07:10:52.033Z,43.32
2019-04-21T07:13:15.332Z,43.65
2019-04-21T07:15:58.814Z,42.99
2019-04-21T07:18:27.524Z,43.89
2019-04-21T07:20:53.112Z,42.24
2019-04-21T07:23:32.259Z,43.45
2019-04-21T07:26:01.057Z,42.29
2019-04-21T07:28:25.364Z,42.39
2019-04-21T07:31:03.653Z,42.68
2019-04-21T07:36:03.966Z,41.59
2019-04-21T07:38:36.776Z,41.30
2019-04-21T07:40:59.607Z,42.04
2019-04-21T07:43:31.460Z,41.23
2019-04-21T07:46:03.625Z,41.97
2019-04-21T07:48:43.143Z,41.32
2019-04-21T07:51:18.859Z,41.41
2019-04-21T07:53:59.665Z,41.06
2019-04-21T07:56:09.231Z,41.19
2019-04-21T07:59:00.155Z,41.55
2019-04-21T08:01:25.725Z,40.51
2019-04-21T08:04:03.435Z,40.39
2019-04-21T08:07:06.335Z,40.75
2019-04-21T08:09:01.188Z,39.47
2019-04-21T08:11:25.470Z,40.61
2019-04-21T08:14:00.580Z,43.19
2019-04-21T08:16:35.020Z,39.12
2019-04-21T08:19:09.693Z,38.85
2019-04-21T08:21:35.451Z,37.75
2019-04-21T08:24:08.817Z,38.05
2019-04-21T08:26:45.060Z,37.57
2019-04-21T08:29:22.464Z,37.70
2019-04-21T08:31:50.008Z,37.95
2019-04-21T08:34:14.125Z,37.20
2019-04-21T08:36:40.315Z,37.91
2019-04-21T08:39:13.183Z,37.36
2019-04-21T08:41:45.331Z,37.20
2019-04-21T08:44:24.304Z,36.52
2019-04-21T08:46:52.608Z,36.47
2019-04-21T08:49:22.209Z,35.70
2019-04-21T08:51:53.862Z,35.18
2019-04-21T08:54:26.474Z,35.17
2019-04-21T08:57:01.275Z,35.07
2019-04-21T08:59:38.774Z,35.13
2019-04-21T09:02:18.143Z,34.77
2019-04-21T09:04:50.741Z,33.66
2019-04-21T09:07:23.916Z,33.41
2019-04-21T09:09:50.006Z,32.89
2019-04-21T09:12:21.292Z,32.67
2019-04-21T09:14:54.231Z,33.43
2019-04-21T09:17:17.700Z,33.45
2019-04-21T09:20:01.792Z,32.13
2019-04-21T09:22:28.357Z,32.10
2019-04-21T09:24:59.760Z,32.77
2019-04-21T09:27:26.521Z,31.70
2019-04-21T09:29:48.967Z,32.83
2019-04-21T09:32:18.244Z,31.17
2019-04-21T09:34:45.646Z,31.42
2019-04-21T09:37:26.533Z,31.98
2019-04-21T09:39:49.972Z,30.90
2019-04-21T09:42:19.726Z,30.81
2019-04-21T09:44:53.852Z,30.30
2019-04-21T09:47:23.484Z,29.37
2019-04-21T09:49:51.943Z,28.67
2019-04-21T09:52:27.029Z,28.07
2019-04-21T09:55:04.004Z,28.57
2019-04-21T09:57:36.692Z,27.08
2019-04-21T10:00:02.204Z,26.84
2019-04-21T10:02:34.235Z,25.50
2019-04-21T10:04:59.477Z,25.19
2019-04-21T10:07:34.705Z,24.37
2019-04-21T10:10:00.531Z,24.00
2019-04-21T10:12:30.685Z,24.23
2019-04-21T10:15:00.286Z,23.58
2019-04-21T10:17:32.933Z,23.39
2019-04-21T10:20:03.161Z,22.68
2019-04-21T10:22:33.087Z,22.18
2019-04-21T10:25:06.770Z,22.18
2019-04-21T10:27:39.376Z,21.95
2019-04-21T10:30:10.127Z,21.34
2019-04-21T10:32:40.617Z,21.66
2019-04-21T10:35:10.998Z,22.31
2019-04-21T10:37:50.414Z,20.92
2019-04-21T10:40:13.718Z,21.39
2019-04-21T10:42:43.477Z,20.78
2019-04-21T10:45:14.793Z,21.19
2019-04-21T10:47:45.042Z,21.00
2019-04-21T10:50:16.158Z,20.72
2019-04-21T10:52:59.116Z,20.71
2019-04-21T10:55:44.721Z,21.30
2019-04-21T10:58:06.505Z,21.26
2019-04-21T11:00:36.782Z,20.73
2019-04-21T11:03:24.829Z,20.60
2019-04-21T11:05:56.700Z,20.85
2019-04-21T11:08:32.281Z,20.60
2019-04-21T11:10:58.210Z,21.50
2019-04-21T11:13:28.409Z,21.45
2019-04-21T11:15:59.172Z,20.91
2019-04-21T11:18:30.091Z,20.92
2019-04-21T11:21:00.858Z,21.26
2019-04-21T11:23:31.274Z,22.22
2019-04-21T11:26:04.469Z,22.12
2019-04-21T11:28:34.629Z,21.34
2019-04-21T11:31:04.964Z,21.12
2019-04-21T11:33:35.616Z,20.72
2019-04-21T11:36:06.927Z,20.63
2019-04-21T11:38:54.282Z,20.26
2019-04-21T11:41:09.894Z,19.88
2019-04-21T11:43:39.527Z,20.97
2019-04-21T11:46:10.671Z,19.56
2019-04-21T11:48:40.492Z,20.24
2019-04-21T11:51:11.030Z,20.23
2019-04-21T11:53:41.104Z,20.10
2019-04-21T11:56:10.849Z,19.98
2019-04-21T11:58:41.570Z,20.19
2019-04-21T12:01:11.628Z,20.02
2019-04-21T12:03:41.973Z,20.66
2019-04-21T12:06:11.646Z,20.52
2019-04-21T12:08:46.201Z,19.75
2019-04-21T12:11:13.703Z,19.19
2019-04-21T12:13:43.353Z,19.49
2019-04-21T12:16:13.109Z,19.85
2019-04-21T12:18:43.013Z,20.03
2019-04-21T12:21:13.606Z,20.69
2019-04-21T12:23:44.667Z,20.76
2019-04-21T12:26:15.846Z,21.33
2019-04-21T12:28:45.986Z,21.40
2019-04-21T12:31:23.500Z,21.52
2019-04-21T12:34:00.444Z,22.03
2019-04-21T12:36:31.634Z,23.04
2019-04-21T12:39:03.703Z,23.37
2019-04-21T12:41:33.011Z,22.48
2019-04-21T12:44:02.676Z,23.21
2019-04-21T12:46:32.253Z,23.33
2019-04-21T12:49:02.210Z,23.19
2019-04-21T12:51:33.620Z,23.28
2019-04-21T12:54:03.816Z,24.48
2019-04-21T12:56:33.712Z,24.33
2019-04-21T12:59:03.505Z,24.46
2019-04-21T13:01:34.979Z,22.91
2019-04-21T13:04:05.899Z,23.84
2019-04-21T13:06:35.754Z,24.36
2019-04-21T13:09:10.752Z,24.95
2019-04-21T13:11:39.261Z,23.22
2019-04-21T13:14:09.079Z,23.48
2019-04-21T13:16:39.229Z,24.72
2019-04-21T13:19:09.393Z,24.46
2019-04-21T13:21:40.321Z,24.65
2019-04-21T13:24:10.051Z,24.66
2019-04-21T13:26:48.426Z,24.57
2019-04-21T13:29:12.264Z,24.73
2019-04-21T13:31:42.581Z,24.40
2019-04-21T13:34:13.676Z,23.68
2019-04-21T13:36:43.760Z,23.63
2019-04-21T13:39:50.291Z,23.87
2019-04-21T13:42:13.418Z,23.89
2019-04-21T13:44:35.030Z,24.06
2019-04-21T13:47:05.015Z,24.58
2019-04-21T13:49:35.129Z,24.07
2019-04-21T13:52:04.966Z,23.95
2019-04-21T13:54:35.693Z,24.16
2019-04-21T13:57:05.471Z,23.19
2019-04-21T13:59:36.321Z,23.31
2019-04-21T14:02:06.865Z,22.97
2019-04-21T14:04:37.849Z,23.18
2019-04-21T14:07:08.198Z,23.36
2019-04-21T14:09:47.660Z,23.17
2019-04-21T14:12:09.738Z,23.42
2019-04-21T14:14:39.976Z,23.93
2019-04-21T14:17:10.869Z,23.76
2019-04-21T14:19:41.554Z,24.05
2019-04-21T14:22:13.926Z,23.35
2019-04-21T14:24:43.851Z,23.73
2019-04-21T14:27:14.377Z,24.04
2019-04-21T14:29:44.091Z,23.22
2019-04-21T14:32:14.082Z,24.13
2019-04-21T14:34:44.349Z,23.36
2019-04-21T14:37:15.087Z,23.60
2019-04-21T14:39:52.783Z,23.76
2019-04-21T14:42:16.108Z,24.18
2019-04-21T14:44:46.933Z,24.43
2019-04-21T14:47:18.836Z,24.07
2019-04-21T14:49:51.054Z,23.52
2019-04-21T14:52:25.378Z,23.67
2019-04-21T14:54:56.671Z,23.14
2019-04-21T14:57:27.361Z,23.18
2019-04-21T14:59:57.375Z,23.67
2019-04-21T15:02:27.769Z,24.08
2019-04-21T15:04:57.897Z,23.15
2019-04-21T15:07:27.660Z,24.69
2019-04-21T15:10:04.434Z,22.74
2019-04-21T15:12:29.904Z,23.63
2019-04-21T15:15:00.189Z,23.03
2019-04-21T15:17:29.842Z,23.80
2019-04-21T15:20:04.597Z,23.67
2019-04-21T15:22:30.854Z,23.43
2019-04-21T15:25:00.721Z,23.46
2019-04-21T15:27:30.728Z,23.38
2019-04-21T15:30:00.668Z,23.36
2019-04-21T15:32:30.671Z,23.12
2019-04-21T15:35:00.527Z,23.87
2019-04-21T15:37:31.598Z,23.69
2019-04-21T15:40:12.271Z,23.68
2019-04-21T15:42:32.830Z,23.83
2019-04-21T15:45:02.924Z,24.04
2019-04-21T15:47:33.788Z,23.89
2019-04-21T15:50:10.512Z,23.82
2019-04-21T15:52:35.881Z,23.72
2019-04-21T15:55:12.631Z,23.30
2019-04-21T15:58:02.694Z,23.85
2019-04-21T16:00:42.943Z,23.61
2019-04-21T16:03:12.969Z,23.95
2019-04-21T16:05:42.733Z,23.97
2019-04-21T16:08:12.368Z,23.76
2019-04-21T16:10:48.929Z,24.14
2019-04-21T16:13:13.940Z,24.31
2019-04-21T16:15:44.297Z,23.95
2019-04-21T16:18:14.206Z,23.66
2019-04-21T16:20:44.013Z,23.82
2019-04-21T16:23:14.890Z,22.52
2019-04-21T16:25:44.602Z,22.03
2019-04-21T16:28:15.443Z,20.30
2019-04-21T16:30:46.457Z,19.12
2019-04-21T16:33:16.224Z,19.12
2019-04-21T16:35:47.492Z,18.38
2019-04-21T16:38:17.551Z,19.19
2019-04-21T16:40:54.178Z,20.57
2019-04-21T16:43:19.958Z,22.95
2019-04-21T16:45:50.757Z,22.95
2019-04-21T16:48:21.167Z,23.48
2019-04-21T16:50:52.006Z,24.32
2019-04-21T16:53:30.294Z,24.98
2019-04-21T16:56:02.666Z,25.70
2019-04-21T16:58:46.418Z,25.98
2019-04-21T17:01:20.029Z,26.45
2019-04-21T17:03:50.245Z,26.90
2019-04-21T17:06:20.186Z,27.33
2019-04-21T17:08:50.590Z,27.68
2019-04-21T17:11:26.171Z,27.90
2019-04-21T17:13:52.065Z,28.03
2019-04-21T17:16:55.157Z,28.10
2019-04-21T17:19:01.888Z,28.38
2019-04-21T17:21:25.951Z,28.63
2019-04-21T17:23:56.646Z,28.64
2019-04-21T17:26:27.011Z,28.90
2019-04-21T17:28:56.779Z,29.16
2019-04-21T17:31:26.792Z,29.69
2019-04-21T17:34:02.144Z,29.63
2019-04-21T17:36:29.318Z,29.37
2019-04-21T17:39:00.116Z,29.57
2019-04-21T17:41:36.459Z,29.78
2019-04-21T17:44:02.585Z,30.12
2019-04-21T17:46:40.703Z,30.52
2019-04-21T17:49:05.223Z,30.94
2019-04-21T17:51:52.651Z,31.48
2019-04-21T17:54:24.789Z,32.48
2019-04-21T17:57:12.491Z,32.68
2019-04-21T17:59:51.053Z,33.68
2019-04-21T18:02:13.194Z,33.90
2019-04-21T18:04:42.971Z,35.50
2019-04-21T18:07:26.094Z,35.78
2019-04-21T18:10:00.456Z,37.07
2019-04-21T18:12:28.068Z,37.31
2019-04-21T18:14:52.957Z,37.17
2019-04-21T18:17:16.238Z,38.09
2019-04-21T18:19:49.047Z,37.91
2019-04-21T18:22:37.100Z,37.77
2019-04-21T18:25:09.888Z,38.51
2019-04-21T18:27:36.627Z,38.02
2019-04-21T18:30:12.549Z,38.34
2019-04-21T18:32:42.536Z,39.30
2019-04-21T18:35:17.732Z,38.87
2019-04-21T18:38:04.546Z,39.55
2019-04-21T18:40:31.733Z,39.96
2019-04-21T18:43:38.355Z,39.91
2019-04-21T18:46:06.997Z,38.79
2019-04-21T18:48:21.833Z,38.34
2019-04-21T18:51:00.287Z,37.35
2019-04-21T18:53:44.949Z,36.98
2019-04-21T18:56:05.682Z,37.13
2019-04-21T18:58:32.659Z,37.37
2019-04-21T19:01:07.541Z,37.50
2019-04-21T19:03:40.994Z,36.90
2019-04-21T19:06:11.736Z,37.96
2019-04-21T19:08:59.754Z,38.20
2019-04-21T19:11:24.026Z,38.69
2019-04-21T19:14:20.357Z,39.31
2019-04-21T19:16:41.513Z,39.31
2019-04-21T19:19:38.274Z,40.50
2019-04-21T19:21:40.404Z,39.80
2019-04-21T19:26:57.466Z,41.22
2019-04-21T19:29:26.706Z,41.49
2019-04-21T19:31:49.677Z,42.33
2019-04-21T19:34:11.324Z,41.57
2019-04-21T19:36:34.453Z,42.75
2019-04-21T19:39:13.475Z,42.79
2019-04-21T19:41:52.139Z,42.19
2019-04-21T19:44:30.691Z,41.53
2019-04-21T19:46:58.350Z,42.24
2019-04-21T19:49:32.067Z,41.75
2019-04-21T19:51:53.988Z,40.33
2019-04-21T19:54:24.276Z,40.22
2019-04-21T19:56:47.094Z,40.32
2019-04-21T19:59:19.974Z,39.87
2019-04-21T20:01:49.974Z,41.10
2019-04-21T20:04:20.028Z,40.69
2019-04-21T20:07:01.756Z,40.54
2019-04-21T20:09:37.512Z,41.37
2019-04-21T20:12:08.205Z,40.20
2019-04-21T20:17:08.455Z,40.42
2019-04-21T20:19:26.795Z,39.90
2019-04-21T20:21:56.917Z,39.55
2019-04-21T20:24:30.317Z,39.63
2019-04-21T20:27:06.932Z,39.04
2019-04-21T20:29:49.834Z,39.00
2019-04-21T20:32:24.377Z,39.23
2019-04-21T20:34:57.795Z,39.55
2019-04-21T20:37:21.310Z,39.58
2019-04-21T20:39:46.061Z,39.25
2019-04-21T20:42:20.867Z,39.21
2019-04-21T20:44:58.370Z,39.08
2019-04-21T20:47:22.239Z,38.52
2019-04-21T20:49:51.143Z,38.54
2019-04-21T20:52:41.734Z,38.62
2019-04-21T20:54:56.831Z,38.21
2019-04-21T20:57:29.928Z,38.04
2019-04-21T21:00:05.746Z,38.24
2019-04-21T21:02:39.057Z,38.47
2019-04-21T21:04:57.275Z,38.18
2019-04-21T21:07:49.202Z,37.96
2019-04-21T21:10:10.945Z,38.01
2019-04-21T21:12:46.746Z,38.35
2019-04-21T21:15:06.485Z,37.86
2019-04-21T21:17:52.579Z,37.70
2019-04-21T21:20:18.029Z,37.80
2019-04-21T21:22:43.849Z,37.77
2019-04-21T21:25:23.369Z,37.66
2019-04-21T21:27:41.864Z,37.33
2019-04-21T21:30:15.683Z,37.29
2019-04-21T21:33:05.613Z,37.27
2019-04-21T21:35:29.622Z,36.99
2019-04-21T21:38:08.242Z,37.02
2019-04-21T21:40:38.260Z,37.04
2019-04-21T21:42:53.327Z,37.41
2019-04-21T21:45:25.918Z,37.32
2019-04-21T21:48:11.085Z,37.42
2019-04-21T21:50:38.660Z,37.32
2019-04-21T21:53:05.878Z,37.48
2019-04-21T21:55:31.110Z,37.73
2019-04-21T21:58:03.475Z,37.84
2019-04-21T22:00:37.950Z,38.20
2019-04-21T22:03:14.769Z,38.17
2019-04-21T22:05:48.210Z,38.20
2019-04-21T22:08:06.848Z,38.17
2019-04-21T22:10:36.959Z,38.49
2019-04-21T22:13:12.284Z,38.84
2019-04-21T22:15:37.948Z,38.97
2019-04-21T22:18:24.708Z,39.45
2019-04-21T22:20:53.787Z,39.98
2019-04-21T22:23:23.425Z,40.48
2019-04-21T22:25:42.443Z,40.83
2019-04-21T22:28:13.911Z,40.92
2019-04-21T22:30:47.521Z,40.85
2019-04-21T22:33:18.094Z,41.35
2019-04-21T22:35:52.071Z,41.61
2019-04-21T22:38:31.085Z,41.99
2019-04-21T22:41:02.896Z,42.12
2019-04-21T22:43:28.486Z,42.83
2019-04-21T22:45:51.717Z,42.97
2019-04-21T22:48:26.285Z,42.92
2019-04-21T22:50:52.787Z,43.44
2019-04-21T22:53:23.059Z,43.75
2019-04-21T22:56:00.089Z,44.22
2019-04-21T22:58:29.295Z,44.19
2019-04-21T23:00:58.405Z,44.48
2019-04-21T23:03:28.918Z,45.06
2019-04-21T23:06:01.477Z,45.38
2019-04-21T23:08:37.045Z,45.56
2019-04-21T23:11:06.270Z,46.08
2019-04-21T23:13:34.544Z,46.50
2019-04-21T23:16:06.221Z,46.76
2019-04-21T23:18:53.005Z,46.83
2019-04-21T23:21:23.409Z,47.09
2019-04-21T23:23:59.602Z,47.61
2019-04-21T23:26:26.481Z,48.03
2019-04-21T23:29:01.987Z,48.18
2019-04-21T23:31:37.159Z,48.33
2019-04-21T23:33:44.508Z,48.49
2019-04-21T23:36:19.357Z,48.89
2019-04-21T23:38:49.427Z,49.08
2019-04-21T23:41:17.385Z,49.73
2019-04-21T23:43:52.909Z,49.65
2019-04-21T23:46:24.458Z,49.62
2019-04-21T23:49:07.416Z,49.88
2019-04-21T23:51:32.430Z,50.24
2019-04-21T23:53:53.350Z,50.07
2019-04-21T23:56:31.528Z,50.66
2019-04-21T23:58:59.862Z,50.77
